createdAt,value
2023-04-12T00:01:56.848Z,1.50
2023-04-12T00:05:16.849Z,1.43
2023-04-12T00:08:19.781Z,1.10
2023-04-12T00:11:55.774Z,1.17
2023-04-12T00:15:06.750Z,1.50
2023-04-12T00:18:19.901Z,1.50
2023-04-12T00:21:40.802Z,1.60
2023-04-12T00:24:53.838Z,1.70
2023-04-12T00:27:58.837Z,1.90
2023-04-12T00:31:34.841Z,1.67
2023-04-12T00:34:49.822Z,1.80
2023-04-12T00:38:04.817Z,1.57
2023-04-12T00:41:08.865Z,1.20
2023-04-12T00:44:23.857Z,1.30
2023-04-12T00:47:37.926Z,1.85
2023-04-12T00:51:04.907Z,1.43
2023-04-12T00:54:19.929Z,1.57
2023-04-12T00:57:34.899Z,1.57
2023-04-12T01:00:37.898Z,1.63
2023-04-12T01:04:06.932Z,1.73
2023-04-12T01:07:13.974Z,2.40
2023-04-12T01:10:40.999Z,2.05
2023-04-12T01:14:08.959Z,2.03
2023-04-12T01:17:31.030Z,1.73
2023-04-12T01:21:06.006Z,2.20
2023-04-12T01:24:25.010Z,2.00
2023-04-12T01:27:55.039Z,2.15
2023-04-12T01:34:07.074Z,2.03
2023-04-12T01:37:24.996Z,2.20
2023-04-12T01:40:50.098Z,2.30
2023-04-12T01:44:07.046Z,1.87
2023-04-12T01:47:40.114Z,1.83
2023-04-12T01:50:56.098Z,2.40
2023-04-12T01:54:27.091Z,2.30
2023-04-12T01:57:45.059Z,1.60
2023-04-12T02:01:23.203Z,1.83
2023-04-12T02:04:53.159Z,1.60
2023-04-12T02:08:05.126Z,1.70
2023-04-12T02:11:42.501Z,2.47
2023-04-12T02:14:55.183Z,2.07
2023-04-12T02:18:12.154Z,2.43
2023-04-12T02:21:43.180Z,2.00
2023-04-12T02:24:58.197Z,1.60
2023-04-12T02:28:13.171Z,2.05
2023-04-12T02:31:16.324Z,1.60
2023-04-12T02:34:46.199Z,1.83
2023-04-12T02:38:04.242Z,1.83
2023-04-12T02:41:20.236Z,2.40
2023-04-12T02:44:27.246Z,1.80
2023-04-12T02:47:55.475Z,1.57
2023-04-12T02:51:24.393Z,2.00
2023-04-12T02:54:42.276Z,1.50
2023-04-12T02:58:00.419Z,1.37
2023-04-12T03:01:28.340Z,1.60
2023-04-12T03:04:47.308Z,1.50
2023-04-12T03:08:25.295Z,1.30
2023-04-12T03:11:40.546Z,1.10
2023-04-12T03:15:08.288Z,1.10
2023-04-12T03:18:26.344Z,1.57
2023-04-12T03:21:41.366Z,1.43
2023-04-12T03:25:13.322Z,1.40
2023-04-12T03:28:29.298Z,1.10
2023-04-12T03:31:44.370Z,1.60
2023-04-12T03:35:06.378Z,1.50
2023-04-12T03:38:25.441Z,1.40
2023-04-12T03:41:54.402Z,1.40
2023-04-12T03:45:06.473Z,1.40
2023-04-12T03:48:23.483Z,1.40
2023-04-12T03:51:47.416Z,1.10
2023-04-12T03:54:57.412Z,1.53
2023-04-12T03:58:35.486Z,1.77
2023-04-12T04:02:05.563Z,1.63
2023-04-12T04:05:25.479Z,1.37
2023-04-12T04:08:43.521Z,1.40
2023-04-12T04:12:08.474Z,1.60
2023-04-12T04:15:38.529Z,1.40
2023-04-12T04:18:53.540Z,1.40
2023-04-12T04:22:05.585Z,1.57
2023-04-12T04:25:23.603Z,1.85
2023-04-12T04:28:41.602Z,1.20
2023-04-12T04:32:11.603Z,1.00
2023-04-12T04:35:27.602Z,1.50
2023-04-12T04:38:48.657Z,1.23
2023-04-12T04:42:05.564Z,1.03
2023-04-12T04:45:25.670Z,1.10
2023-04-12T04:48:43.684Z,1.25
2023-04-12T04:51:58.643Z,0.90
2023-04-12T04:55:19.732Z,1.20
2023-04-12T04:58:38.705Z,0.80
2023-04-12T05:01:56.747Z,1.23
2023-04-12T05:05:25.640Z,0.97
2023-04-12T05:08:41.684Z,1.30
2023-04-12T05:11:56.655Z,1.40
2023-04-12T05:15:26.695Z,1.20
2023-04-12T05:18:42.765Z,1.17
2023-04-12T05:22:14.762Z,0.90
2023-04-12T05:25:30.729Z,0.80
2023-04-12T05:28:30.793Z,1.50
2023-04-12T05:31:45.711Z,1.20
2023-04-12T05:35:03.799Z,1.00
2023-04-12T05:38:26.809Z,1.20
2023-04-12T05:41:55.764Z,0.90
2023-04-12T05:45:13.720Z,1.10
2023-04-12T05:48:32.886Z,1.13
2023-04-12T05:51:47.821Z,0.85
2023-04-12T05:55:06.865Z,1.43
2023-04-12T05:58:45.905Z,1.30
2023-04-12T06:02:15.943Z,1.30
2023-04-12T06:05:43.902Z,1.10
2023-04-12T06:08:46.835Z,1.40
2023-04-12T06:12:01.842Z,1.30
2023-04-12T06:15:15.839Z,1.55
2023-04-12T06:18:30.994Z,1.10
2023-04-12T06:22:01.009Z,0.93
2023-04-12T06:25:28.997Z,2.25
2023-04-12T06:28:43.923Z,1.73
2023-04-12T06:32:17.002Z,1.15
2023-04-12T06:35:38.948Z,1.37
2023-04-12T06:38:54.209Z,1.30
2023-04-12T06:41:56.949Z,1.33
2023-04-12T06:45:22.042Z,1.20
2023-04-12T06:48:42.150Z,1.30
2023-04-12T06:52:13.066Z,1.30
2023-04-12T06:55:17.090Z,1.57
2023-04-12T06:58:29.009Z,1.23
2023-04-12T07:01:32.063Z,1.37
2023-04-12T07:05:05.013Z,1.30
2023-04-12T07:08:14.081Z,1.40
2023-04-12T07:11:26.103Z,1.13
2023-04-12T07:14:29.073Z,1.40
2023-04-12T07:17:44.181Z,0.80
2023-04-12T07:21:07.057Z,0.93
2023-04-12T07:24:25.083Z,1.77
2023-04-12T07:27:29.140Z,1.20
2023-04-12T07:30:45.114Z,0.90
2023-04-12T07:33:48.327Z,1.30
2023-04-12T07:37:13.125Z,1.30
2023-04-12T07:40:20.130Z,1.30
2023-04-12T07:43:52.147Z,1.30
2023-04-12T07:46:58.176Z,1.13
2023-04-12T07:50:30.179Z,1.20
2023-04-12T07:53:49.200Z,0.87
2023-04-12T07:57:25.242Z,1.20
2023-04-12T08:00:42.194Z,1.17
2023-04-12T08:03:57.637Z,1.10
2023-04-12T08:07:00.211Z,0.97
2023-04-12T08:10:12.263Z,1.50
2023-04-12T08:13:12.270Z,0.90
2023-04-12T08:16:41.299Z,1.50
2023-04-12T08:19:48.304Z,1.10
2023-04-12T08:23:06.255Z,0.90
2023-04-12T08:26:13.322Z,1.40
2023-04-12T08:29:31.385Z,1.20
2023-04-12T08:32:54.408Z,1.10
2023-04-12T08:36:22.356Z,1.00
2023-04-12T08:39:28.490Z,0.90
2023-04-12T08:42:41.310Z,0.90
2023-04-12T08:46:02.388Z,1.40
2023-04-12T08:49:28.387Z,1.40
2023-04-12T08:52:31.373Z,1.10
2023-04-12T08:55:49.398Z,1.30
2023-04-12T08:59:07.437Z,0.90
2023-04-12T09:02:20.803Z,0.90
2023-04-12T09:05:40.446Z,1.30
2023-04-12T09:09:22.412Z,1.60
2023-04-12T09:12:40.502Z,1.40
2023-04-12T09:16:16.444Z,1.45
2023-04-12T09:19:34.470Z,1.17
2023-04-12T09:23:04.423Z,1.47
2023-04-12T09:26:07.508Z,1.10
2023-04-12T09:29:45.542Z,1.30
2023-04-12T09:33:01.567Z,1.15
2023-04-12T09:36:32.559Z,1.20
2023-04-12T09:39:46.564Z,0.87
2023-04-12T09:43:17.679Z,1.53
2023-04-12T09:46:34.705Z,1.40
2023-04-12T09:50:06.697Z,1.40
2023-04-12T09:53:19.552Z,1.20
2023-04-12T09:56:47.654Z,1.35
2023-04-12T10:00:02.640Z,1.40
2023-04-12T10:03:20.705Z,1.30
2023-04-12T10:06:35.591Z,1.47
2023-04-12T10:10:05.658Z,1.47
2023-04-12T10:13:23.653Z,2.05
2023-04-12T10:16:53.692Z,1.45
2023-04-12T10:20:14.718Z,1.47
2023-04-12T10:23:42.628Z,1.37
2023-04-12T10:26:45.650Z,1.97
2023-04-12T10:30:15.755Z,1.40
2023-04-12T10:33:46.654Z,2.13
2023-04-12T10:37:17.683Z,2.65
2023-04-12T10:40:39.788Z,1.70
2023-04-12T10:44:10.708Z,1.80
2023-04-12T10:47:27.866Z,1.50
2023-04-12T10:51:22.254Z,2.30
2023-04-12T10:54:55.828Z,1.80
2023-04-12T10:58:13.766Z,1.60
2023-04-12T11:01:23.926Z,2.10
2023-04-12T11:05:01.918Z,1.80
2023-04-12T11:08:30.787Z,1.60
2023-04-12T11:11:55.853Z,1.53
2023-04-12T11:15:08.884Z,2.00
2023-04-12T11:18:39.907Z,2.30
2023-04-12T11:21:58.896Z,1.95
2023-04-12T11:25:23.901Z,2.10
2023-04-12T11:28:45.843Z,1.73
2023-04-12T11:31:52.914Z,2.50
2023-04-12T11:35:11.899Z,2.00
2023-04-12T11:38:28.842Z,1.70
2023-04-12T11:41:47.899Z,2.43
2023-04-12T11:45:07.662Z,2.15
2023-04-12T11:48:32.996Z,1.70
2023-04-12T11:51:37.932Z,2.23
2023-04-12T11:55:12.867Z,1.70
2023-04-12T11:58:15.924Z,1.70
2023-04-12T12:01:49.102Z,1.90
2023-04-12T12:05:16.023Z,1.70
2023-04-12T12:08:33.963Z,2.03
2023-04-12T12:12:04.012Z,1.60
2023-04-12T12:15:04.059Z,1.80
2023-04-12T12:18:35.023Z,1.80
2023-04-12T12:21:53.054Z,1.97
2023-04-12T12:25:26.073Z,2.00
2023-04-12T12:28:42.031Z,1.40
2023-04-12T12:32:09.026Z,2.30
2023-04-12T12:35:24.094Z,1.40
2023-04-12T12:38:59.167Z,1.93
2023-04-12T12:42:21.115Z,1.97
2023-04-12T12:45:59.058Z,1.77
2023-04-12T12:49:02.192Z,2.23
2023-04-12T12:52:18.192Z,1.80
2023-04-12T12:55:22.072Z,2.30
2023-04-12T12:58:47.134Z,1.53
2023-04-12T13:01:57.285Z,1.83
2023-04-12T13:05:29.152Z,1.63
2023-04-12T13:08:33.082Z,1.60
2023-04-12T13:11:45.140Z,2.15
2023-04-12T13:14:48.175Z,1.20
2023-04-12T13:18:16.202Z,1.93
2023-04-12T13:21:33.138Z,1.70
2023-04-12T13:24:56.239Z,1.60
2023-04-12T13:28:03.250Z,1.17
2023-04-12T13:31:22.244Z,1.65
2023-04-12T13:34:25.191Z,1.65
2023-04-12T13:37:57.264Z,1.60
2023-04-12T13:41:02.398Z,1.40
2023-04-12T13:44:33.263Z,1.23
2023-04-12T13:47:48.388Z,1.60
2023-04-12T13:51:03.284Z,1.70
2023-04-12T13:54:23.678Z,1.25
2023-04-12T13:57:39.295Z,1.50
2023-04-12T14:00:45.329Z,2.07
2023-04-12T14:04:13.311Z,1.60
2023-04-12T14:07:16.323Z,2.03
2023-04-12T14:10:40.420Z,1.60
2023-04-12T14:14:01.406Z,1.55
2023-04-12T14:17:16.403Z,1.95
2023-04-12T14:20:34.432Z,2.17
2023-04-12T14:23:40.427Z,1.97
2023-04-12T14:27:10.411Z,1.70
2023-04-12T14:30:10.416Z,1.75
2023-04-12T14:33:41.487Z,1.50
2023-04-12T14:36:45.438Z,1.47
2023-04-12T14:40:19.412Z,1.47
2023-04-12T14:43:42.485Z,1.50
2023-04-12T14:47:03.513Z,1.43
2023-04-12T14:50:06.527Z,0.93
2023-04-12T14:53:31.523Z,1.80
2023-04-12T14:56:54.223Z,1.27
2023-04-12T15:00:20.547Z,1.30
2023-04-12T15:03:23.700Z,2.00
2023-04-12T15:06:49.504Z,1.27
2023-04-12T15:09:56.578Z,1.40
2023-04-12T15:16:22.830Z,1.40
2023-04-12T15:19:52.584Z,1.20
2023-04-12T15:23:13.621Z,1.25
2023-04-12T15:26:29.629Z,1.77
2023-04-12T15:29:35.562Z,0.93
2023-04-12T15:33:03.663Z,1.20
2023-04-12T15:36:08.683Z,1.70
2023-04-12T15:39:38.638Z,1.20
2023-04-12T15:42:41.593Z,1.83
2023-04-12T15:45:59.683Z,1.15
2023-04-12T15:49:18.733Z,1.03
2023-04-12T15:53:02.714Z,1.33
2023-04-12T15:56:15.008Z,0.77
2023-04-12T15:59:43.746Z,1.00
2023-04-12T16:02:47.001Z,1.20
2023-04-12T16:06:02.744Z,1.20
2023-04-12T16:09:22.675Z,1.20
2023-04-12T16:12:41.756Z,1.23
2023-04-12T16:15:47.836Z,1.33
2023-04-12T16:19:02.775Z,0.93
2023-04-12T16:22:05.800Z,1.20
2023-04-12T16:25:35.810Z,1.00
2023-04-12T16:28:42.800Z,1.20
2023-04-12T16:31:57.794Z,1.43
2023-04-12T16:35:04.823Z,1.05
2023-04-12T16:38:19.840Z,0.70
2023-04-12T16:41:51.794Z,1.30
2023-04-12T16:45:24.904Z,1.40
2023-04-12T16:48:39.874Z,1.20
2023-04-12T16:52:11.851Z,1.60
2023-04-12T16:55:18.825Z,1.03
2023-04-12T16:58:56.843Z,1.30
2023-04-12T17:02:09.839Z,1.50
2023-04-12T17:05:39.967Z,1.85
2023-04-12T17:08:56.180Z,1.20
2023-04-12T17:12:13.959Z,1.05
2023-04-12T17:15:30.994Z,1.97
2023-04-12T17:18:44.942Z,1.30
2023-04-12T17:22:05.893Z,1.50
2023-04-12T17:25:12.970Z,2.10
2023-04-12T17:28:19.930Z,1.80
2023-04-12T17:31:50.698Z,1.70
2023-04-12T17:34:51.987Z,1.30
2023-04-12T17:38:07.992Z,1.43
2023-04-12T17:41:11.007Z,1.90
2023-04-12T17:44:32.032Z,1.47
2023-04-12T17:47:49.079Z,1.60
2023-04-12T17:51:04.077Z,1.27
2023-04-12T17:54:10.070Z,1.80
2023-04-12T17:57:25.037Z,1.47
2023-04-12T18:00:32.072Z,1.40
2023-04-12T18:03:55.221Z,1.30
2023-04-12T18:07:09.046Z,1.13
2023-04-12T18:10:34.054Z,0.80
2023-04-12T18:13:40.141Z,1.17
2023-04-12T18:16:58.130Z,1.20
2023-04-12T18:20:02.730Z,0.57
2023-04-12T18:23:24.109Z,1.27
2023-04-12T18:26:31.099Z,0.87
2023-04-12T18:30:04.191Z,0.90
2023-04-12T18:33:14.245Z,0.90
2023-04-12T18:36:50.299Z,1.30
2023-04-12T18:39:53.477Z,1.17
2023-04-12T18:43:19.193Z,0.73
2023-04-12T18:46:40.296Z,0.90
2023-04-12T18:49:59.295Z,0.70
2023-04-12T18:53:02.239Z,0.30
2023-04-12T18:56:25.256Z,0.67
2023-04-12T18:59:29.311Z,0.67
2023-04-12T19:03:04.376Z,0.65
2023-04-12T19:06:11.220Z,0.73
2023-04-12T19:09:26.322Z,0.50
2023-04-12T19:12:35.375Z,0.53
2023-04-12T19:15:57.402Z,0.55
2023-04-12T19:19:14.291Z,0.80
2023-04-12T19:22:29.369Z,0.60
2023-04-12T19:25:33.354Z,0.65
2023-04-12T19:28:48.458Z,0.80
2023-04-12T19:31:48.453Z,0.50
2023-04-12T19:35:20.283Z,0.60
2023-04-12T19:38:26.425Z,0.83
2023-04-12T19:41:44.398Z,0.60
2023-04-12T19:44:44.412Z,0.60
2023-04-12T19:48:03.557Z,0.57
2023-04-12T19:51:26.428Z,0.70
2023-04-12T19:54:50.440Z,0.85
2023-04-12T20:01:21.548Z,0.70
2023-04-12T20:04:49.461Z,0.60
2023-04-12T20:08:18.497Z,0.53
2023-04-12T20:11:36.483Z,1.10
2023-04-12T20:14:51.514Z,0.70
2023-04-12T20:17:59.566Z,0.50
2023-04-12T20:21:17.470Z,0.30
2023-04-12T20:24:39.534Z,0.50
2023-04-12T20:27:54.529Z,0.43
2023-04-12T20:30:58.580Z,0.60
2023-04-12T20:34:10.513Z,0.63
2023-04-12T20:37:13.517Z,0.80
2023-04-12T20:40:48.582Z,0.77
2023-04-12T20:44:06.609Z,0.80
2023-04-12T20:47:25.656Z,0.60
2023-04-12T20:50:41.644Z,0.80
2023-04-12T20:54:12.211Z,0.80
2023-04-12T20:57:29.680Z,0.70
2023-04-12T21:00:44.657Z,0.80
2023-04-12T21:04:02.715Z,0.77
2023-04-12T21:07:14.673Z,0.90
2023-04-12T21:10:18.700Z,0.90
2023-04-12T21:13:53.710Z,0.97
2023-04-12T21:16:59.696Z,0.90
2023-04-12T21:20:14.737Z,1.00
2023-04-12T21:23:17.825Z,0.70
2023-04-12T21:26:35.737Z,0.77
2023-04-12T21:29:51.718Z,2.10
2023-04-12T21:33:13.700Z,0.90
2023-04-12T21:36:17.769Z,0.87
2023-04-12T21:42:18.736Z,0.90
2023-04-12T21:45:43.965Z,1.17
2023-04-12T21:49:00.896Z,1.40
2023-04-12T21:52:18.839Z,1.00
2023-04-12T21:55:22.800Z,0.73
2023-04-12T21:58:44.859Z,0.77
2023-04-12T22:01:47.828Z,1.20
2023-04-12T22:05:19.795Z,0.90
2023-04-12T22:08:34.785Z,0.67
2023-04-12T22:11:56.898Z,1.10
2023-04-12T22:14:59.856Z,0.80
2023-04-12T22:18:14.906Z,1.10
2023-04-12T22:21:38.871Z,0.90
2023-04-12T22:24:59.872Z,1.40
2023-04-12T22:28:05.917Z,1.00
2023-04-12T22:31:33.069Z,0.90
2023-04-12T22:34:57.995Z,1.47
2023-04-12T22:38:44.315Z,1.13
2023-04-12T22:41:45.979Z,0.97
2023-04-12T22:45:19.002Z,1.00
2023-04-12T22:48:31.939Z,1.13
2023-04-12T22:55:06.039Z,1.43
2023-04-12T22:58:23.980Z,1.57
2023-04-12T23:01:42.131Z,1.60
2023-04-12T23:05:19.032Z,1.33
2023-04-12T23:08:22.054Z,1.17
2023-04-12T23:14:39.118Z,1.57
2023-04-12T23:17:57.104Z,1.50
2023-04-12T23:21:00.124Z,2.00
2023-04-12T23:24:20.087Z,1.30
2023-04-12T23:27:23.112Z,1.20
2023-04-12T23:31:03.238Z,1.63
2023-04-12T23:34:06.491Z,1.50
2023-04-12T23:37:28.051Z,1.60
2023-04-12T23:40:35.104Z,1.70
2023-04-12T23:43:51.128Z,1.70
2023-04-12T23:47:11.170Z,2.07
2023-04-12T23:50:32.129Z,1.93
2023-04-12T23:53:38.121Z,1.97
2023-04-12T23:56:52.168Z,1.40
2023-04-12T23:59:58.167Z,1.97
